Time;durP1;ratioP1;P1;durP2;ratioP2;P2;SDS_P1;SDS_P2;PMS_P1;PMS_P2;Temp;Humidity;BMP_temperature;BMP_pressure;BME280_temperature;BME280_humidity;BME280_pressure;Samples;Min_cycle;Max_cycle;Signal;HPM_P1;HPM_P2
2022/05/23 00:00:26;;;;;;;13.05;4.40;;;;;;;15.24;100.00;100225.85;1883024;76;21070;-72
2022/05/23 00:02:54;;;;;;;13.88;4.60;;;;;;;15.08;100.00;100224.92;1883150;76;21029;-71
2022/05/23 00:05:21;;;;;;;8.48;3.20;;;;;;;15.15;100.00;100217.86;1883028;76;21511;-72
2022/05/23 00:07:50;;;;;;;7.10;3.95;;;;;;;15.19;100.00;100220.78;1882889;76;21069;-72
2022/05/23 00:10:19;;;;;;;6.80;2.70;;;;;;;15.20;100.00;100219.91;1882896;76;21041;-72
2022/05/23 00:12:47;;;;;;;4.83;3.00;;;;;;;15.30;100.00;100214.50;1867462;76;21155;-72
2022/05/23 00:15:14;;;;;;;7.92;3.98;;;;;;;15.24;100.00;100206.44;1874889;76;21670;-72
2022/05/23 00:17:43;;;;;;;4.95;3.02;;;;;;;15.36;100.00;100204.02;1876081;76;21094;-72
2022/05/23 00:20:14;;;;;;;10.20;3.87;;;;;;;15.39;100.00;100200.50;1870810;77;21127;-72
2022/05/23 00:22:42;;;;;;;7.90;2.72;;;;;;;15.34;100.00;100199.30;1870941;77;21034;-72
2022/05/23 00:25:11;;;;;;;5.37;2.52;;;;;;;15.57;100.00;100186.23;1870686;77;21588;-72
2022/05/23 00:27:40;;;;;;;7.50;3.33;;;;;;;15.42;100.00;100184.86;1870909;77;21135;-72
2022/05/23 00:30:10;;;;;;;6.53;2.83;;;;;;;15.29;100.00;100181.30;1870848;77;21166;-72
2022/05/23 00:35:24;;;;;;;7.12;3.37;;;;;;;15.46;100.00;100162.75;1870746;77;21073;-72
2022/05/23 00:37:55;;;;;;;9.65;3.47;;;;;;;15.31;100.00;100156.67;1870765;77;21479;-72
2022/05/23 00:40:38;;;;;;;4.80;2.60;;;;;;;15.30;100.00;100149.80;1870638;77;21131;-72
2022/05/23 00:43:14;;;;;;;7.40;2.50;;;;;;;15.39;100.00;100161.20;1870505;77;21088;-72
2022/05/23 00:45:47;;;;;;;9.30;3.60;;;;;;;15.34;100.00;100155.30;1864090;76;21069;-72
2022/05/23 00:48:18;;;;;;;10.93;4.78;;;;;;;15.20;100.00;100157.81;1870873;77;21042;-71
2022/05/23 00:50:48;;;;;;;5.33;2.33;;;;;;;15.32;100.00;100154.05;1870766;77;21098;-72
2022/05/23 00:53:16;;;;;;;6.75;2.52;;;;;;;15.52;100.00;100147.50;1870854;77;21011;-72
2022/05/23 00:55:47;;;;;;;4.42;2.50;;;;;;;15.24;100.00;100146.06;1870679;77;21046;-72
2022/05/23 00:58:24;;;;;;;9.38;2.70;;;;;;;15.46;100.00;100145.09;1870915;77;21042;-72
2022/05/23 01:00:52;;;;;;;6.47;2.85;;;;;;;15.25;100.00;100141.31;1870021;77;21527;-72
2022/05/23 01:03:20;;;;;;;3.92;2.40;;;;;;;15.42;100.00;100150.78;1870884;77;21034;-72
2022/05/23 01:05:51;;;;;;;5.50;2.25;;;;;;;15.45;100.00;100152.00;1843227;77;21069;-72
2022/05/23 01:08:18;;;;;;;4.25;2.80;;;;;;;15.50;100.00;100160.95;1843256;77;21121;-72
2022/05/23 01:10:46;;;;;;;5.92;2.40;;;;;;;15.35;100.00;100161.74;1842296;77;21026;-72
2022/05/23 01:13:15;;;;;;;9.73;3.95;;;;;;;15.21;100.00;100159.50;1834648;77;21138;-72
2022/05/23 01:15:48;;;;;;;6.83;2.90;;;;;;;15.42;100.00;100157.69;1868069;77;21065;-72
2022/05/23 01:18:16;;;;;;;6.33;2.33;;;;;;;15.31;100.00;100160.13;1871025;76;21058;-72
2022/05/23 01:20:46;;;;;;;5.45;2.08;;;;;;;14.92;100.00;100155.03;1870750;77;21108;-72
2022/05/23 01:23:17;;;;;;;11.22;3.37;;;;;;;14.95;100.00;100157.09;1870905;77;21125;-72
2022/05/23 01:25:46;;;;;;;4.37;2.08;;;;;;;14.98;100.00;100160.50;1840444;78;21150;-72
2022/05/23 01:28:15;;;;;;;5.65;2.10;;;;;;;14.93;100.00;100165.78;1861914;77;21069;-72
2022/05/23 01:30:43;;;;;;;12.07;2.95;;;;;;;14.56;100.00;100169.58;1870679;77;21037;-72
2022/05/23 01:33:11;;;;;;;7.28;2.15;;;;;;;14.54;100.00;100168.78;1870679;77;21029;-72
2022/05/23 01:35:39;;;;;;;6.53;1.62;;;;;;;14.61;100.00;100166.05;1843306;77;21102;-72
2022/05/23 01:38:07;;;;;;;3.10;1.82;;;;;;;14.67;100.00;100177.55;1870802;77;21010;-72
2022/05/23 01:40:35;;;;;;;2.45;1.45;;;;;;;14.57;100.00;100174.33;1870662;77;21453;-72
2022/05/23 01:43:03;;;;;;;4.25;1.80;;;;;;;14.62;100.00;100176.78;1870790;77;21211;-72
2022/05/23 01:45:37;;;;;;;3.08;1.90;;;;;;;14.67;100.00;100177.55;1870765;77;21078;-72
2022/05/23 01:48:06;;;;;;;5.60;1.45;;;;;;;14.69;100.00;100175.34;1870816;77;21061;-72
2022/05/23 01:50:34;;;;;;;6.78;2.35;;;;;;;14.67;100.00;100173.67;1870706;77;21100;-72
2022/05/23 01:53:02;;;;;;;4.20;1.10;;;;;;;14.31;100.00;100176.58;1870882;77;21498;-72
2022/05/23 01:55:30;;;;;;;3.20;1.35;;;;;;;14.25;100.00;100164.23;1870653;77;21692;-73
2022/05/23 01:57:57;;;;;;;4.65;1.70;;;;;;;14.09;100.00;100166.27;1870769;77;21038;-72
2022/05/23 02:03:11;;;;;;;8.10;1.98;;;;;;;14.33;100.00;100166.21;1870936;77;21520;-72
2022/05/23 02:05:39;;;;;;;5.97;2.85;;;;;;;14.25;100.00;100164.23;1870583;77;21132;-72
2022/05/23 02:08:06;;;;;;;6.60;3.33;;;;;;;14.26;100.00;100159.47;1870903;77;21115;-72
2022/05/23 02:10:34;;;;;;;7.55;3.50;;;;;;;14.31;100.00;100161.07;1870609;77;21467;-72
2022/05/23 02:13:02;;;;;;;12.13;3.70;;;;;;;14.50;100.00;100153.36;1856047;77;21018;-72
2022/05/23 02:15:32;;;;;;;7.00;3.15;;;;;;;14.59;100.00;100151.86;1845599;77;21125;-72
2022/05/23 02:18:01;;;;;;;8.48;3.15;;;;;;;14.34;100.00;100158.00;1873680;76;21147;-72
2022/05/23 02:20:29;;;;;;;8.23;3.50;;;;;;;14.31;100.00;100159.78;1883062;76;21112;-72
2022/05/23 02:22:57;;;;;;;9.98;3.52;;;;;;;14.23;100.00;100161.67;1883310;76;21014;-72
2022/05/23 02:25:26;;;;;;;7.97;3.85;;;;;;;14.25;100.00;100156.48;1882844;76;21062;-72
2022/05/23 02:27:55;;;;;;;7.25;3.30;;;;;;;14.18;100.00;100169.52;1883125;76;21058;-72
2022/05/23 02:30:23;;;;;;;7.22;3.52;;;;;;;14.24;100.00;100171.55;1883110;76;21033;-72
2022/05/23 02:32:51;;;;;;;13.13;5.10;;;;;;;14.08;100.00;100166.72;1883037;76;21057;-72
2022/05/23 02:35:19;;;;;;;9.28;3.75;;;;;;;14.03;100.00;100165.52;1882955;76;21077;-72
2022/05/23 02:37:47;;;;;;;8.00;4.17;;;;;;;14.27;100.00;100170.20;1829147;77;21060;-72
2022/05/23 02:40:15;;;;;;;5.80;4.00;;;;;;;14.28;100.00;100166.77;1882891;76;21571;-72
2022/05/23 02:42:43;;;;;;;7.92;3.80;;;;;;;14.25;100.00;100157.31;1883241;76;21040;-72
2022/05/23 02:45:11;;;;;;;6.83;3.55;;;;;;;14.03;100.00;100162.93;1838202;77;21514;-72
2022/05/23 02:47:38;;;;;;;9.58;4.17;;;;;;;14.13;100.00;100162.30;1854572;76;21095;-72
2022/05/23 02:50:08;;;;;;;9.20;3.77;;;;;;;14.21;100.00;100161.30;1883109;76;21058;-72
2022/05/23 02:52:36;;;;;;;7.30;3.85;;;;;;;13.96;100.00;100154.02;1844679;76;21139;-72
2022/05/23 02:55:04;;;;;;;15.30;5.90;;;;;;;14.06;100.00;100154.27;1878832;76;21089;-72
2022/05/23 02:57:32;;;;;;;10.23;4.62;;;;;;;13.90;100.00;100149.40;1877104;76;21045;-72
2022/05/23 03:00:00;;;;;;;10.08;4.95;;;;;;;13.86;100.00;100157.26;1877829;76;21022;-72
2022/05/23 03:05:12;;;;;;;9.63;5.15;;;;;;;13.74;100.00;100146.28;1879007;76;21081;-72
2022/05/23 03:07:40;;;;;;;11.93;5.58;;;;;;;13.87;100.00;100136.55;1871456;76;21040;-72
2022/05/23 03:10:08;;;;;;;10.18;5.72;;;;;;;13.84;100.00;100139.21;1866788;76;21025;-72
2022/05/23 03:12:35;;;;;;;10.50;5.30;;;;;;;13.76;100.00;100135.93;1880752;76;21185;-72
2022/05/23 03:15:05;;;;;;;15.53;6.65;;;;;;;13.85;100.00;100134.45;1882973;76;21085;-72
2022/05/23 03:17:33;;;;;;;14.73;6.78;;;;;;;13.75;100.00;100136.78;1842651;77;21044;-72
2022/05/23 03:20:00;;;;;;;15.83;7.37;;;;;;;14.10;100.00;100130.08;1862678;77;21093;-72
2022/05/23 03:27:59;;;;;;;11.90;6.83;;;;;;;14.17;100.00;100124.33;1870908;77;21170;-72
2022/05/23 03:30:28;;;;;;;12.10;6.15;;;;;;;14.09;100.00;100126.23;1870784;77;21065;-72
2022/05/23 03:33:00;;;;;;;15.28;7.62;;;;;;;13.94;100.00;100115.34;1870933;77;21572;-72
2022/05/23 03:35:26;;;;;;;16.75;6.72;;;;;;;13.97;100.00;100123.01;1869219;77;21162;-72
2022/05/23 03:37:54;;;;;;;18.67;6.80;;;;;;;14.17;100.00;100107.11;1870713;77;21495;-72
2022/05/23 03:40:21;;;;;;;20.10;7.33;;;;;;;14.21;100.00;100107.05;1870681;77;21026;-72
2022/05/23 03:42:48;;;;;;;14.25;7.05;;;;;;;14.34;100.00;100104.59;1870783;77;21053;-72
2022/05/23 03:45:16;;;;;;;14.85;6.20;;;;;;;14.28;100.00;100108.16;1870971;77;21066;-72
2022/05/23 03:47:43;;;;;;;13.08;5.90;;;;;;;14.15;100.00;100102.86;1870859;77;21027;-72
2022/05/23 03:50:11;;;;;;;10.63;6.17;;;;;;;14.38;100.00;100104.07;1870737;77;21093;-72
2022/05/23 03:52:39;;;;;;;14.05;6.92;;;;;;;14.23;100.00;100103.97;1870848;77;21081;-72
2022/05/23 03:55:06;;;;;;;12.98;6.72;;;;;;;14.21;100.00;100098.01;1870501;77;21158;-72
2022/05/23 03:57:34;;;;;;;14.28;5.70;;;;;;;14.30;100.00;100092.20;1870865;77;21022;-72
2022/05/23 04:00:01;;;;;;;8.40;4.70;;;;;;;14.40;100.00;100091.55;1870861;77;21033;-72
2022/05/23 04:02:28;;;;;;;12.65;6.60;;;;;;;14.52;100.00;100096.03;1870790;77;21608;-72
2022/05/23 04:04:56;;;;;;;11.00;5.00;;;;;;;14.63;100.00;100095.31;1870648;77;21490;-72
2022/05/23 04:07:23;;;;;;;11.93;6.60;;;;;;;14.61;100.00;100095.81;1870853;77;21093;-72
2022/05/23 04:09:51;;;;;;;17.30;6.90;;;;;;;14.54;100.00;100095.55;1870762;77;21084;-72
2022/05/23 04:12:18;;;;;;;15.35;5.50;;;;;;;14.47;100.00;100098.72;1853580;76;21045;-72
2022/05/23 04:14:46;;;;;;;9.63;5.53;;;;;;;14.44;100.00;100093.18;1863315;76;21077;-72
2022/05/23 04:17:13;;;;;;;12.90;5.72;;;;;;;14.53;100.00;100092.56;1870944;77;21034;-72
2022/05/23 04:19:40;;;;;;;11.33;5.65;;;;;;;14.57;100.00;100092.89;1846822;76;21069;-72
2022/05/23 04:22:08;;;;;;;13.85;5.75;;;;;;;14.56;100.00;100092.50;1871997;76;21178;-72
2022/05/23 04:24:35;;;;;;;7.05;5.28;;;;;;;14.77;100.00;100096.78;1842877;77;21047;-72
2022/05/23 04:27:03;;;;;;;10.23;5.85;;;;;;;14.85;100.00;100099.16;1868813;77;21093;-72
2022/05/23 04:29:30;;;;;;;9.00;4.67;;;;;;;14.77;100.00;100099.36;1852956;76;21066;-72
2022/05/23 04:31:57;;;;;;;10.58;6.15;;;;;;;14.96;100.00;100101.05;1846910;77;21029;-72
2022/05/23 04:37:10;;;;;;;9.25;5.20;;;;;;;14.85;100.00;100089.67;1863945;77;21075;-72
2022/05/23 04:39:38;;;;;;;12.68;5.17;;;;;;;15.14;100.00;100087.23;1870628;77;21084;-72
2022/05/23 04:42:05;;;;;;;11.78;5.37;;;;;;;15.09;100.00;100086.08;1870848;77;21116;-72
2022/05/23 04:44:33;;;;;;;8.68;4.08;;;;;;;15.03;100.00;100084.48;1843271;77;21136;-72
2022/05/23 04:49:42;;;;;;;7.45;4.70;;;;;;;14.89;100.00;100087.42;1823776;76;21242;-72
2022/05/23 04:52:14;;;;;;;10.43;4.47;;;;;;;14.93;100.00;100086.45;1871105;77;21063;-72
2022/05/23 04:54:43;;;;;;;12.47;4.70;;;;;;;15.21;100.00;100088.34;1870679;77;21050;-72
2022/05/23 04:57:11;;;;;;;6.75;3.85;;;;;;;14.98;100.00;100089.38;1870836;77;21496;-72
2022/05/23 04:59:39;;;;;;;10.03;4.30;;;;;;;15.08;100.00;100090.39;1870716;77;21034;-72
2022/05/23 05:02:07;;;;;;;8.30;4.58;;;;;;;15.29;100.00;100091.17;1870876;77;21010;-72
2022/05/23 05:04:34;;;;;;;6.83;4.12;;;;;;;15.20;100.00;100096.14;1870565;77;21071;-72
2022/05/23 05:07:02;;;;;;;8.08;4.87;;;;;;;15.02;100.00;100091.86;1870759;77;21081;-72
2022/05/23 05:09:29;;;;;;;7.08;3.70;;;;;;;14.79;100.00;100086.80;1870801;77;21114;-72
2022/05/23 05:11:57;;;;;;;6.53;4.08;;;;;;;14.83;100.00;100096.61;1834218;78;21068;-72
2022/05/23 05:14:24;;;;;;;7.65;3.52;;;;;;;14.81;100.00;100091.47;1858826;77;21502;-72
2022/05/23 05:16:53;;;;;;;7.03;3.27;;;;;;;14.97;100.00;100092.39;1870795;77;21046;-72
2022/05/23 05:19:20;;;;;;;5.90;3.25;;;;;;;14.94;100.00;100087.32;1871483;76;21107;-72
2022/05/23 05:21:48;;;;;;;4.65;3.12;;;;;;;15.14;100.00;100085.94;1882862;76;21127;-72
2022/05/23 05:24:15;;;;;;;5.87;2.50;;;;;;;14.92;100.00;100087.35;1882869;76;21603;-72
2022/05/23 05:26:43;;;;;;;5.78;2.67;;;;;;;14.84;100.00;100086.70;1882960;76;21029;-73
2022/05/23 05:29:10;;;;;;;6.55;2.45;;;;;;;14.84;100.00;100086.70;1883220;76;21025;-74
2022/05/23 05:31:46;;;;;;;5.65;2.70;;;;;;;15.06;100.00;100083.12;1845431;76;21025;-74
2022/05/23 05:34:19;;;;;;;5.30;2.27;;;;;;;14.96;100.00;100081.64;1882991;76;21806;-74
2022/05/23 05:36:49;;;;;;;3.55;2.20;;;;;;;14.88;100.00;100081.85;1882512;76;21037;-74
2022/05/23 05:39:19;;;;;;;5.35;2.45;;;;;;;15.11;100.00;100084.28;1882824;76;21105;-74
2022/05/23 05:41:52;;;;;;;5.10;2.65;;;;;;;15.28;100.00;100081.26;1883065;76;21547;-74
2022/05/23 05:44:21;;;;;;;5.08;2.50;;;;;;;15.04;100.00;100081.44;1864459;76;21108;-74
2022/05/23 05:46:51;;;;;;;5.83;2.60;;;;;;;15.09;100.00;100077.84;1883177;76;21014;-74
2022/05/23 05:49:28;;;;;;;4.28;2.25;;;;;;;15.21;100.00;100074.11;1883043;76;21033;-74
2022/05/23 05:51:59;;;;;;;6.12;2.60;;;;;;;15.15;100.00;100078.59;1882785;76;21151;-75
2022/05/23 05:54:28;;;;;;;5.97;2.70;;;;;;;15.26;100.00;100078.31;1846696;76;21530;-74
2022/05/23 05:56:58;;;;;;;4.45;2.17;;;;;;;15.15;100.00;100080.72;1830546;77;21128;-74
2022/05/23 05:59:26;;;;;;;6.12;2.42;;;;;;;15.33;100.00;100078.56;1871717;76;21475;-75
2022/05/23 06:01:54;;;;;;;5.42;2.40;;;;;;;15.53;100.00;100079.76;1869079;76;21112;-74
2022/05/23 06:04:21;;;;;;;5.40;1.98;;;;;;;15.25;100.00;100081.33;1866071;76;21042;-74
2022/05/23 06:12:19;;;;;;;3.95;2.10;;;;;;;15.48;100.00;100078.15;1845929;76;21147;-74
2022/05/23 06:14:47;;;;;;;2.77;2.00;;;;;;;15.35;100.00;100081.94;1841529;76;21194;-74
2022/05/23 06:17:14;;;;;;;5.70;2.33;;;;;;;15.47;100.00;100080.31;1874485;76;21123;-74
2022/05/23 06:19:44;;;;;;;6.55;2.17;;;;;;;15.60;100.00;100082.13;1863076;76;21189;-75
2022/05/23 06:22:13;;;;;;;4.22;2.10;;;;;;;15.39;100.00;100076.25;1865365;76;21033;-74
2022/05/23 06:24:41;;;;;;;3.10;1.98;;;;;;;15.41;100.00;100081.79;1867796;75;21069;-74
2022/05/23 06:27:10;;;;;;;5.85;1.77;;;;;;;15.32;100.00;100093.69;1877270;76;21127;-74
2022/05/23 06:29:38;;;;;;;4.37;1.47;;;;;;;15.41;100.00;100086.97;1845026;76;21120;-74
2022/05/23 06:32:06;;;;;;;6.08;2.20;;;;;;;15.31;100.00;100093.27;1878007;76;21026;-74
2022/05/23 06:34:34;;;;;;;2.35;1.27;;;;;;;15.30;100.00;100098.05;1877786;76;21720;-74
2022/05/23 06:37:01;;;;;;;8.35;1.95;;;;;;;15.60;100.00;100086.47;1875999;76;21151;-74
2022/05/23 06:39:28;;;;;;;5.47;1.65;;;;;;;15.68;100.00;100093.58;1877928;76;21147;-74
2022/05/23 06:41:56;;;;;;;7.20;2.02;;;;;;;15.81;100.00;100090.64;1880400;76;21045;-74
2022/05/23 06:44:23;;;;;;;4.87;1.60;;;;;;;15.66;100.00;100104.41;1877164;76;21203;-74
2022/05/23 06:46:51;;;;;;;2.40;1.50;;;;;;;16.39;100.00;100106.66;1879892;76;21096;-74
2022/05/23 06:49:18;;;;;;;10.45;2.60;;;;;;;16.61;100.00;100101.66;1843606;76;21025;-74
2022/05/23 06:51:49;;;;;;;6.45;2.17;;;;;;;16.45;100.00;100092.66;1882223;76;21477;-74
2022/05/23 06:54:15;;;;;;;5.78;2.40;;;;;;;16.17;100.00;100099.55;1870175;76;21081;-74
2022/05/23 06:56:42;;;;;;;5.87;2.30;;;;;;;16.13;100.00;100099.24;1865020;76;21533;-74
2022/05/23 06:59:11;;;;;;;9.35;1.92;;;;;;;15.65;100.00;100096.25;1862518;76;20998;-74
2022/05/23 07:01:39;;;;;;;6.20;1.75;;;;;;;16.16;100.00;100100.89;1868294;76;21225;-74
2022/05/23 07:04:06;;;;;;;7.83;1.72;;;;;;;16.89;100.00;100106.42;1872452;76;21112;-74
2022/05/23 07:12:20;;;;;;;8.53;1.70;;;;;;;17.06;100.00;100111.52;1866737;76;21062;-74
2022/05/23 07:14:48;;;;;;;6.30;1.52;;;;;;;17.10;100.00;100117.02;1871496;76;21700;-74
2022/05/23 07:17:16;;;;;;;8.25;2.15;;;;;;;17.18;100.00;100127.98;1873455;76;21129;-74
2022/05/23 07:19:44;;;;;;;6.30;1.67;;;;;;;17.22;100.00;100117.89;1833173;76;21167;-74
2022/05/23 07:22:12;;;;;;;4.80;1.50;;;;;;;17.11;100.00;100116.11;1865251;76;21577;-74
2022/05/23 07:24:39;;;;;;;5.83;1.65;;;;;;;16.99;100.00;100117.34;1854470;77;21160;-74
2022/05/23 07:27:11;;;;;;;8.48;1.57;;;;;;;17.49;100.00;100111.79;1846209;77;21037;-74
2022/05/23 07:29:38;;;;;;;2.80;1.57;;;;;;;17.45;100.00;100105.01;1829702;77;21075;-74
2022/05/23 07:32:05;;;;;;;9.68;2.47;;;;;;;17.65;100.00;100097.82;1869261;77;21104;-73
2022/05/23 07:34:33;;;;;;;3.75;1.67;;;;;;;16.82;100.00;100110.97;1869281;76;21069;-72
2022/05/23 07:37:00;;;;;;;4.72;1.47;;;;;;;17.08;100.00;100108.41;1859222;77;21116;-73
2022/05/23 07:39:28;;;;;;;6.08;1.50;;;;;;;17.90;100.00;100106.86;1834602;76;21458;-73
2022/05/23 07:41:55;;;;;;;5.15;1.87;;;;;;;17.77;100.00;100106.91;1870822;77;21112;-75
2022/05/23 07:44:24;;;;;;;5.08;1.57;;;;;;;17.73;100.00;100101.42;1870439;77;21108;-75
2022/05/23 07:46:53;;;;;;;5.60;1.40;;;;;;;17.72;100.00;100108.39;1870673;77;21483;-72
2022/05/23 07:49:21;;;;;;;5.87;1.45;;;;;;;17.73;100.00;100111.37;1870854;77;21058;-72
2022/05/23 07:51:48;;;;;;;4.87;1.92;;;;;;;18.59;100.00;100117.73;1870325;77;21037;-72
2022/05/23 08:02:32;;;;;;;10.03;2.05;;;;;;;18.77;100.00;100121.35;1854168;77;21172;-71
2022/05/23 08:04:59;;;;;;;8.05;1.75;;;;;;;18.28;100.00;100123.25;1856163;77;21694;-71
2022/05/23 08:07:28;;;;;;;2.87;1.22;;;;;;;18.28;100.00;100123.25;1855482;77;21101;-71
2022/05/23 08:10:00;;;;;;;8.03;1.57;;;;;;;17.94;100.00;100119.28;1857165;76;21104;-71
2022/05/23 08:12:27;;;;;;;2.40;1.40;;;;;;;18.19;100.00;100119.68;1866545;76;21048;-71
2022/05/23 08:14:54;;;;;;;4.40;1.47;;;;;;;18.47;100.00;100116.02;1867959;76;21834;-71
2022/05/23 08:17:22;;;;;;;5.53;1.50;;;;;;;18.37;100.00;100114.70;1864444;76;21174;-71
2022/05/23 08:19:50;;;;;;;7.78;1.70;;;;;;;18.99;100.00;100116.59;1864513;76;21473;-71
2022/05/23 08:22:19;;;;;;;6.75;1.67;;;;;;;19.59;100.00;100111.42;1849643;76;21102;-71
2022/05/23 08:24:47;;;;;;;4.33;1.37;;;;;;;19.24;100.00;100112.50;1810965;78;21140;-71
2022/05/23 08:27:14;;;;;;;8.03;2.95;;;;;;;18.91;100.00;100106.03;1833648;78;21510;-71
2022/05/23 08:29:42;;;;;;;4.67;1.65;;;;;;;18.84;100.00;100104.59;1833840;78;21137;-71
2022/05/23 08:32:13;;;;;;;6.95;2.25;;;;;;;18.70;100.00;100099.95;1832109;78;21078;-71
2022/05/23 08:34:40;;;;;;;4.28;1.25;;;;;;;18.70;100.00;100099.95;1807798;78;21165;-71
2022/05/23 08:37:08;;;;;;;4.95;2.25;;;;;;;18.63;100.00;100095.89;1834075;78;21117;-71
2022/05/23 08:39:35;;;;;;;3.85;1.62;;;;;;;18.73;100.00;100088.12;1819544;78;21073;-71
2022/05/23 08:42:12;;;;;;;3.27;1.72;;;;;;;18.48;100.00;100092.16;1839118;78;21133;-72
2022/05/23 08:44:48;;;;;;;3.58;1.42;;;;;;;18.17;100.00;100089.02;1840348;78;21654;-72
2022/05/23 08:47:30;;;;;;;3.47;1.70;;;;;;;18.31;100.00;100089.30;1809419;78;21117;-71
2022/05/23 08:50:13;;;;;;;4.45;1.98;;;;;;;18.25;100.00;100083.06;1841454;78;21068;-71
2022/05/23 08:53:00;;;;;;;4.72;1.87;;;;;;;18.64;100.00;100088.03;1842052;78;21464;-71
2022/05/23 08:55:34;;;;;;;5.95;1.80;;;;;;;18.69;100.00;100072.24;1842027;78;21078;-71
2022/05/23 08:58:05;;;;;;;;;;;;;;;18.97;100.00;100065.89;1844864;78;21094;-72
2022/05/23 09:00:41;;;;;;;5.75;2.45;;;;;;;18.55;100.00;100060.63;1842002;77;20130;-72
2022/05/23 09:03:14;;;;;;;2.75;1.25;;;;;;;18.59;100.00;100071.77;1841033;78;21113;-72
2022/05/23 09:05:44;;;;;;;5.03;1.72;;;;;;;19.10;100.00;100069.30;1842222;78;21181;-72
2022/05/23 09:08:14;;;;;;;7.17;1.25;;;;;;;18.80;100.00;100066.14;1839595;78;21107;-72
2022/05/23 09:10:54;;;;;;;9.93;1.80;;;;;;;18.80;100.00;100066.14;1837912;78;21132;-72
2022/05/23 09:13:22;;;;;;;7.60;1.65;;;;;;;19.13;100.00;100061.36;1785887;78;21111;-72
2022/05/23 09:15:52;;;;;;;4.22;1.70;;;;;;;19.30;100.00;100057.56;1824919;77;21161;-72
2022/05/23 09:18:23;;;;;;;4.72;1.45;;;;;;;19.53;100.00;100058.75;1828213;78;21446;-71
2022/05/23 09:20:52;;;;;;;3.30;1.30;;;;;;;19.39;100.00;100061.97;1835908;78;21041;-72
2022/05/23 09:23:30;;;;;;;7.20;1.55;;;;;;;19.62;100.00;100061.41;1872374;76;21057;-72
2022/05/23 09:25:58;;;;;;;5.45;1.30;;;;;;;19.25;100.00;100068.64;1886167;76;21049;-72
2022/05/23 09:28:35;;;;;;;7.67;1.35;;;;;;;19.04;100.00;100060.81;1886476;76;21037;-72
2022/05/23 09:31:17;;;;;;;6.42;1.47;;;;;;;19.41;100.00;100060.98;1852911;76;21439;-72
2022/05/23 09:33:47;;;;;;;13.72;2.05;;;;;;;18.93;100.00;100066.45;1884777;76;21470;-72
2022/05/23 09:36:20;;;;;;;3.80;1.20;;;;;;;18.57;100.00;100070.97;1884820;76;21106;-72
2022/05/23 09:38:53;;;;;;;11.43;1.60;;;;;;;19.06;100.00;100073.77;1884688;76;21022;-72
2022/05/23 09:49:39;;;;;;;5.95;1.77;;;;;;;18.58;100.00;100084.84;1857830;76;21144;-72
2022/05/23 09:52:19;;;;;;;6.47;1.67;;;;;;;18.76;100.00;100082.77;1883667;76;21037;-72
2022/05/23 09:54:55;;;;;;;9.45;2.80;;;;;;;18.68;100.00;100084.84;1843500;77;21138;-72
2022/05/23 09:57:29;;;;;;;11.78;2.00;;;;;;;18.58;100.00;100085.66;1875264;76;21482;-72
2022/05/23 10:00:08;;;;;;;5.45;2.12;;;;;;;18.59;100.00;100091.28;1884875;76;21452;-72
2022/05/23 10:02:41;;;;;;;5.83;1.65;;;;;;;18.37;100.00;100083.02;1865201;76;21110;-72
2022/05/23 10:05:24;;;;;;;5.75;1.50;;;;;;;18.24;100.00;100080.52;1868020;76;21591;-72
2022/05/23 10:07:54;;;;;;;6.55;1.75;;;;;;;18.31;100.00;100077.60;1854948;76;21162;-72
2022/05/23 10:10:28;;;;;;;6.30;2.00;;;;;;;17.99;100.00;100077.06;1886256;76;21037;-73
2022/05/23 10:13:24;;;;;;;7.40;1.75;;;;;;;17.91;100.00;100086.91;1865150;76;21502;-72
2022/05/23 10:15:58;;;;;;;6.25;1.67;;;;;;;18.37;100.00;100083.02;1885801;75;21131;-73
2022/05/23 10:18:34;;;;;;;2.25;1.32;;;;;;;18.89;100.00;100078.38;1885703;76;21053;-72
2022/05/23 10:21:03;;;;;;;5.72;1.52;;;;;;;19.38;100.00;100083.73;1862102;76;21048;-72
2022/05/23 10:23:33;;;;;;;3.00;1.47;;;;;;;20.52;100.00;100076.80;1871000;76;21094;-73
2022/05/23 10:26:06;;;;;;;6.08;1.95;;;;;;;20.56;100.00;100085.34;1882276;76;21538;-73
2022/05/23 10:28:54;;;;;;;9.73;2.02;;;;;;;20.63;100.00;100075.00;1882575;76;21080;-72
2022/05/23 10:31:44;;;;;;;6.03;1.77;;;;;;;20.29;100.00;100077.92;1882422;76;21644;-74
2022/05/23 10:34:17;;;;;;;4.83;2.20;;;;;;;19.62;100.00;100077.05;1882353;76;21081;-73
2022/05/23 10:36:47;;;;;;;6.30;1.42;;;;;;;19.80;100.00;100085.79;1881281;76;21002;-73
2022/05/23 10:42:23;;;;;;;6.30;1.87;;;;;;;18.78;100.00;100087.91;1849632;76;21175;-71
2022/05/23 10:45:13;;;;;;;9.73;2.20;;;;;;;19.06;100.00;100084.19;1881159;76;21127;-72
2022/05/23 10:48:07;;;;;;;11.12;2.40;;;;;;;19.06;100.00;100084.19;1881450;76;21025;-73
2022/05/23 10:50:40;;;;;;;7.53;1.60;;;;;;;19.00;100.00;100081.83;1864149;76;21049;-73
2022/05/23 10:53:37;;;;;;;5.28;1.40;;;;;;;19.16;100.00;100085.94;1860166;76;21424;-72
2022/05/23 10:56:14;;;;;;;7.53;1.60;;;;;;;19.07;100.00;100089.33;1882155;76;21471;-72
2022/05/23 10:58:59;;;;;;;6.28;1.62;;;;;;;19.16;100.00;100079.44;1882398;76;21490;-72
2022/05/23 11:01:47;;;;;;;6.22;1.52;;;;;;;19.16;100.00;100079.44;1882540;76;21033;-72
2022/05/23 11:04:34;;;;;;;5.83;2.02;;;;;;;19.83;100.00;100071.32;1882090;76;21588;-73
2022/05/23 11:07:24;;;;;;;9.68;2.00;;;;;;;19.11;100.00;100074.44;1882299;76;21029;-73
2022/05/23 11:09:54;;;;;;;5.08;1.77;;;;;;;19.11;100.00;100074.44;1880868;76;21029;-74
2022/05/23 11:12:48;;;;;;;6.87;2.10;;;;;;;18.60;100.00;100086.91;1864200;76;21097;-72
2022/05/23 11:15:19;;;;;;;4.08;1.30;;;;;;;18.56;100.00;100085.75;1874937;76;21080;-72
2022/05/23 11:18:11;;;;;;;4.67;1.67;;;;;;;18.97;100.00;100084.55;1881223;76;21041;-73
2022/05/23 11:20:41;;;;;;;4.60;1.20;;;;;;;18.76;100.00;100104.05;1882457;76;21564;-74
2022/05/23 11:23:30;;;;;;;7.80;2.00;;;;;;;18.15;100.00;100102.50;1873911;76;21087;-73
2022/05/23 11:25:59;;;;;;;6.80;1.85;;;;;;;18.14;100.00;100098.22;1851270;76;21058;-73
2022/05/23 11:34:27;;;;;;;5.15;1.70;;;;;;;18.05;100.00;100083.78;1851377;77;21574;-73
2022/05/23 11:36:57;;;;;;;3.12;1.85;;;;;;;17.91;100.00;100077.37;1843786;77;21046;-73
2022/05/23 11:39:48;;;;;;;8.63;2.35;;;;;;;18.18;100.00;100090.70;1851263;77;21090;-73
2022/05/23 11:42:19;;;;;;;7.33;1.55;;;;;;;18.27;100.00;100083.83;1851432;77;21146;-73
2022/05/23 11:44:52;;;;;;;5.92;1.25;;;;;;;18.39;100.00;100086.86;1851216;77;21059;-74
2022/05/23 11:47:21;;;;;;;7.85;1.90;;;;;;;17.77;100.00;100084.82;1851598;77;21052;-73
2022/05/23 11:49:52;;;;;;;7.42;1.75;;;;;;;17.78;100.00;100084.77;1851336;77;21050;-73
2022/05/23 11:52:28;;;;;;;7.72;2.00;;;;;;;17.72;100.00;100095.41;1850925;77;21047;-72
2022/05/23 11:54:55;;;;;;;12.70;2.22;;;;;;;17.83;100.00;100101.94;1847627;76;21156;-73
2022/05/23 11:57:38;;;;;;;7.15;1.87;;;;;;;17.94;100.00;100098.48;1849564;77;21038;-73
2022/05/23 12:00:20;;;;;;;3.80;1.82;;;;;;;18.40;100.00;100106.75;1854190;76;21088;-73
2022/05/23 12:03:06;;;;;;;6.25;1.70;;;;;;;18.28;100.00;100097.69;1838560;76;21059;-73
2022/05/23 12:05:35;;;;;;;7.97;1.40;;;;;;;18.19;100.00;100104.08;1858404;76;21072;-73
2022/05/23 12:08:05;;;;;;;10.08;1.60;;;;;;;18.34;100.00;100103.11;1855875;76;21431;-74
2022/05/23 12:10:40;;;;;;;7.15;1.80;;;;;;;17.91;100.00;100096.00;1844150;77;21041;-73
2022/05/23 12:13:32;;;;;;;5.85;1.50;;;;;;;18.34;100.00;100100.50;1819689;76;21026;-74
2022/05/23 12:16:03;;;;;;;8.70;2.08;;;;;;;18.10;100.00;100096.65;1853717;76;21170;-74
2022/05/23 12:18:33;;;;;;;6.03;1.35;;;;;;;17.83;100.00;100100.20;1849232;76;21463;-73
2022/05/23 12:21:06;;;;;;;5.85;1.22;;;;;;;17.89;100.00;100101.72;1853588;76;21098;-74
2022/05/23 12:23:38;;;;;;;5.35;1.30;;;;;;;17.74;100.00;100097.91;1860673;76;21171;-74
2022/05/23 12:26:12;;;;;;;2.35;1.00;;;;;;;17.63;100.00;100099.17;1838813;76;21096;-73
2022/05/23 12:28:54;;;;;;;5.95;1.60;;;;;;;17.76;100.00;100094.82;1861887;76;21177;-73